Maracaju, Brazil
Current Conditions -  °F | °C
As of 5:00 AM on Friday 21 Nov 2014 (Local Time) from SBCG Reporting Station
Few Clouds Few Clouds  
Wind Chill: 72°   Ceiling: Unl
Heat Index: 72°   Visibility: 6mi
Dew Point: 66°   Wind: 18mph
Humidity: 83%   Direction: 20°NNE
Pressure: 29.88"   Gusts: NA
Location:  21.61°S, 55.17°W
Report Text: SBCG 210800Z 02016KT 9999 FEW030 22/19 Q1012
Loading
Personal Weather Stations






























Interactive Weather Map New forecast layout! Learn more

10-Day Weather Forecast

Advertisements
Track Severe Weather on mobile